createdAt,value
2018-12-19T00:02:21.297Z,8.95
2018-12-19T00:04:49.696Z,8.40
2018-12-19T00:07:18.119Z,12.13
2018-12-19T00:09:46.524Z,9.75
2018-12-19T00:12:14.947Z,8.55
2018-12-19T00:14:43.347Z,8.15
2018-12-19T00:17:11.836Z,9.00
2018-12-19T00:19:40.234Z,8.28
2018-12-19T00:22:08.658Z,11.40
2018-12-19T00:24:37.066Z,8.50
2018-12-19T00:27:05.515Z,11.20
2018-12-19T00:29:33.921Z,10.40
2018-12-19T00:32:02.346Z,9.63
2018-12-19T00:34:30.755Z,14.13
2018-12-19T00:36:59.174Z,14.30
2018-12-19T00:39:27.581Z,12.15
2018-12-19T00:41:56.122Z,11.85
2018-12-19T00:44:24.572Z,11.35
2018-12-19T00:46:52.996Z,13.58
2018-12-19T00:49:21.400Z,12.30
2018-12-19T00:51:49.830Z,12.43
2018-12-19T00:54:18.291Z,11.57
2018-12-19T00:56:46.811Z,11.28
2018-12-19T00:59:15.210Z,8.68
2018-12-19T01:01:43.631Z,14.85
2018-12-19T01:04:12.038Z,11.43
2018-12-19T01:06:40.477Z,12.15
2018-12-19T01:09:08.919Z,10.20
2018-12-19T01:11:37.472Z,12.10
2018-12-19T01:14:05.998Z,11.83
2018-12-19T01:16:34.434Z,10.75
2018-12-19T01:19:02.858Z,12.25
2018-12-19T01:21:31.259Z,12.07
2018-12-19T01:23:59.726Z,9.38
2018-12-19T01:26:28.128Z,9.85
2018-12-19T01:28:56.582Z,11.40
2018-12-19T01:31:25.671Z,10.23
2018-12-19T01:33:54.099Z,8.85
2018-12-19T01:36:22.526Z,10.55
2018-12-19T01:38:50.941Z,12.13
2018-12-19T01:41:19.338Z,9.60
2018-12-19T01:43:47.758Z,9.88
2018-12-19T01:46:16.165Z,9.68
2018-12-19T01:48:44.642Z,8.90
2018-12-19T01:51:13.038Z,10.15
2018-12-19T01:53:41.478Z,11.10
2018-12-19T01:56:09.980Z,12.05
2018-12-19T01:58:38.404Z,12.80
2018-12-19T02:01:06.813Z,12.33
2018-12-19T02:03:35.310Z,12.20
2018-12-19T02:06:03.825Z,11.00
2018-12-19T02:08:32.230Z,11.88
2018-12-19T02:11:00.654Z,11.00
2018-12-19T02:13:29.059Z,10.10
2018-12-19T02:15:57.482Z,11.83
2018-12-19T02:18:25.882Z,9.95
2018-12-19T02:20:54.310Z,10.35
2018-12-19T02:23:22.706Z,10.13
2018-12-19T02:25:51.155Z,14.25
2018-12-19T02:28:19.561Z,9.93
2018-12-19T02:30:47.986Z,10.98
2018-12-19T02:33:16.399Z,9.25
2018-12-19T02:35:44.819Z,12.07
2018-12-19T02:38:13.240Z,10.45
2018-12-19T02:40:41.666Z,11.48
2018-12-19T02:43:10.061Z,10.98
2018-12-19T02:45:38.486Z,11.40
2018-12-19T02:48:06.896Z,11.88
2018-12-19T02:50:35.313Z,8.73
2018-12-19T02:53:03.731Z,11.63
2018-12-19T02:55:32.153Z,15.35
2018-12-19T02:58:00.558Z,11.35
2018-12-19T03:00:29.003Z,10.98
2018-12-19T03:02:57.411Z,10.88
2018-12-19T03:05:25.830Z,10.30
2018-12-19T03:07:54.291Z,12.53
2018-12-19T03:10:22.786Z,11.35
2018-12-19T03:12:51.203Z,14.13
2018-12-19T03:15:19.648Z,14.65
2018-12-19T03:17:48.077Z,14.63
2018-12-19T03:20:16.497Z,14.35
2018-12-19T03:22:44.931Z,14.50
2018-12-19T03:25:13.445Z,11.88
2018-12-19T03:27:41.870Z,13.35
2018-12-19T03:30:10.525Z,14.68
2018-12-19T03:32:38.959Z,15.00
2018-12-19T03:35:07.369Z,19.30
2018-12-19T03:37:35.815Z,17.25
2018-12-19T03:40:04.549Z,11.48
2018-12-19T03:42:33.025Z,11.25
2018-12-19T03:45:01.461Z,12.65
2018-12-19T03:47:30.014Z,10.70
2018-12-19T03:49:58.562Z,12.37
2018-12-19T03:52:27.016Z,12.40
2018-12-19T03:54:55.417Z,12.05
2018-12-19T03:57:24.162Z,11.35
2018-12-19T03:59:52.570Z,14.03
2018-12-19T04:02:20.990Z,11.88
2018-12-19T04:04:49.405Z,11.43
2018-12-19T04:07:17.837Z,11.18
2018-12-19T04:09:46.243Z,11.70
2018-12-19T04:12:14.658Z,9.98
2018-12-19T04:14:43.062Z,13.30
2018-12-19T04:17:11.605Z,11.40
2018-12-19T04:19:40.136Z,11.55
2018-12-19T04:22:08.562Z,10.30
2018-12-19T04:24:36.961Z,13.25
2018-12-19T04:27:05.402Z,10.72
2018-12-19T04:32:43.783Z,11.53
2018-12-19T04:35:12.233Z,10.87
2018-12-19T04:37:40.686Z,11.95
2018-12-19T04:40:09.123Z,12.70
2018-12-19T04:42:37.554Z,11.80
2018-12-19T04:45:06.194Z,13.28
2018-12-19T04:47:34.625Z,10.00
2018-12-19T04:50:03.258Z,12.63
2018-12-19T04:52:31.709Z,11.35
2018-12-19T04:55:00.154Z,9.45
2018-12-19T04:57:28.585Z,11.70
2018-12-19T04:59:57.006Z,9.25
2018-12-19T05:02:25.410Z,10.00
2018-12-19T05:04:53.841Z,12.03
2018-12-19T05:07:22.666Z,11.48
2018-12-19T05:09:51.083Z,9.30
2018-12-19T05:12:19.509Z,9.70
2018-12-19T05:14:47.939Z,8.30
2018-12-19T05:17:16.349Z,10.35
2018-12-19T05:19:45.378Z,12.80
2018-12-19T05:22:13.793Z,13.85
2018-12-19T05:24:42.217Z,14.00
2018-12-19T05:27:10.630Z,13.47
2018-12-19T05:29:39.073Z,15.10
2018-12-19T05:32:07.486Z,13.48
2018-12-19T05:34:35.919Z,14.90
2018-12-19T05:37:04.398Z,17.23
2018-12-19T05:39:32.826Z,14.63
2018-12-19T05:42:01.228Z,14.47
2018-12-19T05:44:29.650Z,16.40
2018-12-19T05:46:58.046Z,13.20
2018-12-19T05:49:26.482Z,12.07
2018-12-19T05:51:54.973Z,11.25
2018-12-19T05:54:23.426Z,9.63
2018-12-19T05:56:51.833Z,11.70
2018-12-19T05:59:20.258Z,9.28
2018-12-19T06:01:48.658Z,9.30
2018-12-19T06:04:17.070Z,8.93
2018-12-19T06:06:45.493Z,9.45
2018-12-19T06:09:13.896Z,9.20
2018-12-19T06:11:42.328Z,10.40
2018-12-19T06:14:10.747Z,14.80
2018-12-19T06:16:39.178Z,14.65
2018-12-19T06:19:07.591Z,12.75
2018-12-19T06:21:36.016Z,10.60
2018-12-19T06:24:04.426Z,12.18
2018-12-19T06:26:32.858Z,11.00
2018-12-19T06:29:01.471Z,11.18
2018-12-19T06:31:29.911Z,15.72
2018-12-19T06:33:58.688Z,17.10
2018-12-19T06:36:27.378Z,15.80
2018-12-19T06:38:55.811Z,13.53
2018-12-19T06:41:24.254Z,14.68
2018-12-19T06:43:52.674Z,12.10
2018-12-19T06:46:21.117Z,17.67
2018-12-19T06:48:49.540Z,14.13
2018-12-19T06:51:18.961Z,15.45
2018-12-19T06:53:47.561Z,16.30
2018-12-19T06:56:15.991Z,14.83
2018-12-19T06:58:44.430Z,14.78
2018-12-19T07:01:12.870Z,20.55
2018-12-19T07:03:41.290Z,15.15
2018-12-19T07:06:09.775Z,17.80
2018-12-19T07:08:38.200Z,15.08
2018-12-19T07:11:06.627Z,15.15
2018-12-19T07:13:35.057Z,18.02
2018-12-19T07:16:03.486Z,14.13
2018-12-19T07:18:31.930Z,15.50
2018-12-19T07:21:00.388Z,16.07
2018-12-19T07:23:28.948Z,16.42
2018-12-19T07:25:57.357Z,18.98
2018-12-19T07:28:25.781Z,14.33
2018-12-19T07:30:54.184Z,17.50
2018-12-19T07:33:22.614Z,17.27
2018-12-19T07:35:51.020Z,17.45
2018-12-19T07:38:19.447Z,18.25
2018-12-19T07:40:47.855Z,19.10
2018-12-19T07:43:16.287Z,18.05
2018-12-19T07:45:44.694Z,17.12
2018-12-19T07:48:13.354Z,18.82
2018-12-19T07:50:41.770Z,14.35
2018-12-19T07:53:10.935Z,16.77
2018-12-19T07:55:40.498Z,15.65
2018-12-19T07:58:09.131Z,17.60
2018-12-19T08:00:38.046Z,17.05
2018-12-19T08:03:06.498Z,19.92
2018-12-19T08:05:34.906Z,17.82
2018-12-19T08:08:03.534Z,17.32
2018-12-19T08:10:31.942Z,16.32
2018-12-19T08:13:00.382Z,13.40
2018-12-19T08:15:28.795Z,16.05
2018-12-19T08:17:57.230Z,14.17
2018-12-19T08:20:26.160Z,17.52
2018-12-19T08:22:56.340Z,18.87
2018-12-19T08:25:24.837Z,16.67
2018-12-19T08:27:53.415Z,15.75
2018-12-19T08:30:21.839Z,15.05
2018-12-19T08:32:50.302Z,14.68
2018-12-19T08:35:18.710Z,12.07
2018-12-19T08:37:47.141Z,13.83
2018-12-19T08:40:15.575Z,11.95
2018-12-19T08:42:44.063Z,15.67
2018-12-19T08:45:12.574Z,14.30
2018-12-19T08:47:40.987Z,11.85
2018-12-19T08:50:10.007Z,11.67
2018-12-19T08:52:38.445Z,11.12
2018-12-19T08:55:07.659Z,17.35
2018-12-19T08:57:36.074Z,21.25
2018-12-19T09:00:05.674Z,22.30
2018-12-19T09:02:34.083Z,20.23
2018-12-19T09:05:02.520Z,14.60
2018-12-19T09:07:30.933Z,16.65
2018-12-19T09:09:59.354Z,17.30
2018-12-19T09:12:27.813Z,13.25
2018-12-19T09:14:57.299Z,14.35
2018-12-19T09:17:26.598Z,20.40
2018-12-19T09:19:55.334Z,22.93
2018-12-19T09:22:24.273Z,22.02
2018-12-19T09:24:52.914Z,20.93
2018-12-19T09:27:21.394Z,18.80
2018-12-19T09:29:49.821Z,17.20
2018-12-19T09:32:18.235Z,15.65
2018-12-19T09:34:46.667Z,14.65
2018-12-19T09:37:15.083Z,20.15
2018-12-19T09:39:43.509Z,16.27
2018-12-19T09:42:11.911Z,15.70
2018-12-19T09:44:40.327Z,14.03
2018-12-19T09:47:08.735Z,15.70
2018-12-19T09:49:37.176Z,17.33
2018-12-19T09:52:05.582Z,14.60
2018-12-19T09:54:34.067Z,12.60
2018-12-19T09:57:02.490Z,14.20
2018-12-19T09:59:30.935Z,13.50
2018-12-19T10:01:59.574Z,18.83
2018-12-19T10:04:28.051Z,21.57
2018-12-19T10:06:56.487Z,22.30
2018-12-19T10:09:24.914Z,21.63
2018-12-19T10:11:53.364Z,24.57
2018-12-19T10:14:21.787Z,18.37
2018-12-19T10:16:50.210Z,21.10
2018-12-19T10:19:18.614Z,18.97
2018-12-19T10:21:47.436Z,20.60
2018-12-19T10:24:16.010Z,16.40
2018-12-19T10:26:45.285Z,19.70
2018-12-19T10:29:13.703Z,22.23
2018-12-19T10:31:42.132Z,19.30
2018-12-19T10:34:10.563Z,16.67
2018-12-19T10:36:38.994Z,20.03
2018-12-19T10:39:13.612Z,16.90
2018-12-19T10:41:42.078Z,17.77
2018-12-19T10:44:10.821Z,21.73
2018-12-19T10:46:39.456Z,28.50
2018-12-19T10:49:07.890Z,20.60
2018-12-19T10:51:36.334Z,23.45
2018-12-19T10:54:04.815Z,22.47
2018-12-19T10:56:33.235Z,20.97
2018-12-19T10:59:01.673Z,24.15
2018-12-19T11:01:30.119Z,22.87
2018-12-19T11:03:58.551Z,21.90
2018-12-19T11:06:27.023Z,24.67
2018-12-19T11:08:55.488Z,21.57
2018-12-19T11:11:23.928Z,23.63
2018-12-19T11:13:52.358Z,23.10
2018-12-19T11:16:20.771Z,20.53
2018-12-19T11:18:49.232Z,23.77
2018-12-19T11:21:17.879Z,24.15
2018-12-19T11:23:46.391Z,24.47
2018-12-19T11:26:14.802Z,25.40
2018-12-19T11:28:43.286Z,20.53
2018-12-19T11:31:11.717Z,22.65
2018-12-19T11:33:40.181Z,26.50
2018-12-19T11:36:10.126Z,19.23
2018-12-19T11:38:38.875Z,18.93
2018-12-19T11:41:07.297Z,20.57
2018-12-19T11:43:35.876Z,21.68
2018-12-19T11:46:04.426Z,28.38
2018-12-19T11:48:32.867Z,22.97
2018-12-19T11:51:01.281Z,22.40
2018-12-19T11:53:29.746Z,24.82
2018-12-19T11:55:58.190Z,22.40
2018-12-19T11:58:26.682Z,23.27
2018-12-19T12:00:55.218Z,21.10
2018-12-19T12:03:23.659Z,20.30
2018-12-19T12:05:52.079Z,20.00
2018-12-19T12:08:20.518Z,20.70
2018-12-19T12:10:48.946Z,22.00
2018-12-19T12:13:17.362Z,19.03
2018-12-19T12:15:45.921Z,20.20
2018-12-19T12:18:14.340Z,22.60
2018-12-19T12:20:42.778Z,25.57
2018-12-19T12:23:11.215Z,27.47
2018-12-19T12:25:39.654Z,24.90
2018-12-19T12:28:08.081Z,22.77
2018-12-19T12:30:36.522Z,23.73
2018-12-19T12:33:04.936Z,25.70
2018-12-19T12:35:33.366Z,20.83
2018-12-19T12:38:01.783Z,21.00
2018-12-19T12:40:30.215Z,18.90
2018-12-19T12:42:58.633Z,21.73
2018-12-19T12:45:27.091Z,17.40
2018-12-19T12:47:55.514Z,22.93
2018-12-19T12:50:23.968Z,21.50
2018-12-19T12:52:52.413Z,18.97
2018-12-19T12:55:20.842Z,18.90
2018-12-19T12:57:49.254Z,21.93
2018-12-19T13:00:17.689Z,26.70
2018-12-19T13:02:46.125Z,25.97
2018-12-19T13:05:14.682Z,22.57
2018-12-19T13:07:43.242Z,20.67
2018-12-19T13:10:11.678Z,21.10
2018-12-19T13:12:40.150Z,26.73
2018-12-19T13:15:09.118Z,22.33
2018-12-19T13:17:37.531Z,22.03
2018-12-19T13:20:06.543Z,22.20
2018-12-19T13:22:34.980Z,23.07
2018-12-19T13:25:03.526Z,24.10
2018-12-19T13:27:31.974Z,26.10
2018-12-19T13:30:00.390Z,27.13
2018-12-19T13:32:29.932Z,25.17
2018-12-19T13:34:58.356Z,25.73
2018-12-19T13:37:27.618Z,22.10
2018-12-19T13:39:56.653Z,25.87
2018-12-19T13:42:25.099Z,25.37
2018-12-19T13:44:53.514Z,22.27
2018-12-19T13:47:21.965Z,23.30
2018-12-19T13:49:50.382Z,23.33
2018-12-19T13:52:18.834Z,29.73
2018-12-19T13:54:47.319Z,23.57
2018-12-19T13:57:15.758Z,22.57
2018-12-19T13:59:44.162Z,27.33
2018-12-19T14:02:12.606Z,25.70
2018-12-19T14:04:41.249Z,26.27
2018-12-19T14:07:10.002Z,21.93
2018-12-19T14:09:38.533Z,23.02
2018-12-19T14:12:12.225Z,24.37
2018-12-19T14:14:37.405Z,26.37
2018-12-19T14:17:05.834Z,26.57
2018-12-19T14:19:34.238Z,23.00
2018-12-19T14:22:02.665Z,27.60
2018-12-19T14:24:31.090Z,26.03
2018-12-19T14:26:59.540Z,22.43
2018-12-19T14:29:28.007Z,23.83
2018-12-19T14:31:56.450Z,24.93
2018-12-19T14:34:24.891Z,28.47
2018-12-19T14:36:53.315Z,23.60
2018-12-19T14:39:21.752Z,23.63
2018-12-19T14:41:50.178Z,20.57
2018-12-19T14:44:18.626Z,22.80
2018-12-19T14:46:47.074Z,28.90
2018-12-19T14:49:15.542Z,24.50
2018-12-19T14:51:43.964Z,28.00
2018-12-19T14:54:12.406Z,23.40
2018-12-19T14:56:40.938Z,19.13
2018-12-19T14:59:09.400Z,23.60
2018-12-19T15:01:37.821Z,23.67
2018-12-19T15:04:06.301Z,25.20
2018-12-19T15:06:34.894Z,25.10
2018-12-19T15:09:03.991Z,24.70
2018-12-19T15:11:32.390Z,23.53
2018-12-19T15:14:01.002Z,24.67
2018-12-19T15:16:29.416Z,25.90
2018-12-19T15:18:57.846Z,24.27
2018-12-19T15:21:26.272Z,25.10
2018-12-19T15:23:54.811Z,27.57
2018-12-19T15:26:23.234Z,26.30
2018-12-19T15:28:51.733Z,26.93
2018-12-19T15:31:20.150Z,26.57
2018-12-19T15:33:48.582Z,22.07
2018-12-19T15:36:17.165Z,26.97
2018-12-19T15:38:45.592Z,22.60
2018-12-19T15:41:14.291Z,24.90
2018-12-19T15:43:42.751Z,24.93
2018-12-19T15:46:11.279Z,23.77
2018-12-19T15:48:39.714Z,24.67
2018-12-19T15:51:08.156Z,24.93
2018-12-19T15:53:36.587Z,24.37
2018-12-19T15:56:05.012Z,22.60
2018-12-19T15:58:33.415Z,22.07
2018-12-19T16:01:01.849Z,21.07
2018-12-19T16:03:30.267Z,18.33
2018-12-19T16:05:58.690Z,23.10
2018-12-19T16:08:27.671Z,24.97
2018-12-19T16:10:56.275Z,23.20
2018-12-19T16:13:24.675Z,22.87
2018-12-19T16:15:53.138Z,25.50
2018-12-19T16:18:21.538Z,26.73
2018-12-19T16:20:49.969Z,27.20
2018-12-19T16:23:18.399Z,24.97
2018-12-19T16:25:46.818Z,24.30
2018-12-19T16:28:15.370Z,24.53
2018-12-19T16:30:43.793Z,24.07
2018-12-19T16:33:12.254Z,27.13
2018-12-19T16:35:40.677Z,27.37
2018-12-19T16:38:09.118Z,28.80
2018-12-19T16:40:37.546Z,31.97
2018-12-19T16:43:05.967Z,26.60
2018-12-19T16:45:34.436Z,28.90
2018-12-19T16:48:02.856Z,29.90
2018-12-19T16:50:31.282Z,25.80
2018-12-19T16:52:59.745Z,29.93
2018-12-19T16:55:28.158Z,27.40
2018-12-19T16:57:56.785Z,30.23
2018-12-19T17:00:25.342Z,27.27
2018-12-19T17:02:53.784Z,25.20
2018-12-19T17:05:22.192Z,23.43
2018-12-19T17:07:50.637Z,28.40
2018-12-19T17:10:19.038Z,29.03
2018-12-19T17:12:52.770Z,28.47
2018-12-19T17:15:17.898Z,27.93
2018-12-19T17:17:46.348Z,26.60
2018-12-19T17:20:14.790Z,28.33
2018-12-19T17:22:43.239Z,26.50
2018-12-19T17:25:11.646Z,24.00
2018-12-19T17:27:40.071Z,30.20
2018-12-19T17:30:08.595Z,27.60
2018-12-19T17:32:37.038Z,29.57
2018-12-19T17:35:06.230Z,27.73
2018-12-19T17:37:34.651Z,22.50
2018-12-19T17:40:03.177Z,25.93
2018-12-19T17:42:31.598Z,26.97
2018-12-19T17:45:00.027Z,28.47
2018-12-19T17:47:28.431Z,25.37
2018-12-19T17:49:56.856Z,27.37
2018-12-19T17:52:25.293Z,30.03
2018-12-19T17:54:53.736Z,27.97
2018-12-19T17:57:22.152Z,27.33
2018-12-19T17:59:50.582Z,26.70
2018-12-19T18:02:18.986Z,24.77
2018-12-19T18:04:47.411Z,25.57
2018-12-19T18:07:15.838Z,25.43
2018-12-19T18:09:44.269Z,22.10
2018-12-19T18:12:12.785Z,20.47
2018-12-19T18:14:41.344Z,21.30
2018-12-19T18:17:09.753Z,22.63
2018-12-19T18:19:38.170Z,19.20
2018-12-19T18:22:06.570Z,21.30
2018-12-19T18:24:37.851Z,20.23
2018-12-19T18:27:06.314Z,19.10
2018-12-19T18:29:34.798Z,17.10
2018-12-19T18:32:03.206Z,24.07
2018-12-19T18:34:31.625Z,24.50
2018-12-19T18:37:00.066Z,25.40
2018-12-19T18:39:28.485Z,26.20
2018-12-19T18:41:56.898Z,26.50
2018-12-19T18:44:25.323Z,24.67
2018-12-19T18:46:53.719Z,29.07
2018-12-19T18:49:22.155Z,27.63
2018-12-19T18:51:50.554Z,30.20
2018-12-19T18:54:19.289Z,30.07
2018-12-19T18:56:47.695Z,27.50
2018-12-19T18:59:16.097Z,30.17
2018-12-19T19:01:44.647Z,27.20
2018-12-19T19:04:13.070Z,28.83
2018-12-19T19:06:41.619Z,27.77
2018-12-19T19:09:10.114Z,29.60
2018-12-19T19:11:38.534Z,25.67
2018-12-19T19:14:06.971Z,26.17
2018-12-19T19:16:35.400Z,27.60
2018-12-19T19:19:03.950Z,29.57
2018-12-19T19:21:32.373Z,30.10
2018-12-19T19:24:00.787Z,29.07
2018-12-19T19:26:29.206Z,28.50
2018-12-19T19:28:57.646Z,26.10
2018-12-19T19:31:26.064Z,30.47
2018-12-19T19:33:54.462Z,29.77
2018-12-19T19:36:22.898Z,30.00
2018-12-19T19:38:51.305Z,30.70
2018-12-19T19:41:19.738Z,32.23
2018-12-19T19:43:48.157Z,29.25
2018-12-19T19:46:16.574Z,25.80
2018-12-19T19:48:44.974Z,27.20
2018-12-19T19:51:16.897Z,23.80
2018-12-19T19:53:43.849Z,25.43
2018-12-19T19:56:12.286Z,28.33
2018-12-19T19:58:40.696Z,26.57
2018-12-19T20:01:09.118Z,23.07
2018-12-19T20:03:37.523Z,29.60
2018-12-19T20:06:05.956Z,25.60
2018-12-19T20:08:34.491Z,31.80
2018-12-19T20:11:02.965Z,31.87
2018-12-19T20:13:33.439Z,30.53
2018-12-19T20:16:01.799Z,26.50
2018-12-19T20:18:30.357Z,32.83
2018-12-19T20:20:58.878Z,28.50
2018-12-19T20:23:27.302Z,27.50
2018-12-19T20:25:55.710Z,31.23
2018-12-19T20:28:24.131Z,30.77
2018-12-19T20:30:52.553Z,28.13
2018-12-19T20:33:21.234Z,26.90
2018-12-19T20:35:49.642Z,29.27
2018-12-19T20:38:18.062Z,28.80
2018-12-19T20:40:46.466Z,28.23
2018-12-19T20:43:14.887Z,31.10
2018-12-19T20:45:43.313Z,26.63
2018-12-19T20:48:11.746Z,27.90
2018-12-19T20:50:40.182Z,25.57
2018-12-19T20:53:08.636Z,28.80
2018-12-19T20:55:37.050Z,22.73
2018-12-19T20:58:05.470Z,26.37
2018-12-19T21:00:34.002Z,27.13
2018-12-19T21:03:02.542Z,27.40
2018-12-19T21:05:30.952Z,27.97
2018-12-19T21:07:59.504Z,30.20
2018-12-19T21:10:28.049Z,24.10
2018-12-19T21:12:56.474Z,29.83
2018-12-19T21:15:24.887Z,25.73
2018-12-19T21:17:58.831Z,29.43
2018-12-19T21:20:27.360Z,27.50
2018-12-19T21:22:55.891Z,25.63
2018-12-19T21:25:24.319Z,27.77
2018-12-19T21:27:52.748Z,20.60
2018-12-19T21:30:21.245Z,18.87
2018-12-19T21:32:49.666Z,16.70
2018-12-19T21:35:18.202Z,22.07
2018-12-19T21:37:46.615Z,17.60
2018-12-19T21:40:15.166Z,21.93
2018-12-19T21:42:43.931Z,23.23
2018-12-19T21:45:12.466Z,20.37
2018-12-19T21:47:41.006Z,25.93
2018-12-19T21:50:09.611Z,19.80
2018-12-19T21:52:38.254Z,20.67
2018-12-19T21:55:06.752Z,24.17
2018-12-19T21:57:35.289Z,17.87
2018-12-19T22:00:04.052Z,21.27
2018-12-19T22:02:32.494Z,18.93
2018-12-19T22:05:01.025Z,18.13
2018-12-19T22:07:29.476Z,19.10
2018-12-19T22:09:58.090Z,25.07
2018-12-19T22:12:26.491Z,20.67
2018-12-19T22:14:55.017Z,21.30
2018-12-19T22:17:28.827Z,21.73
2018-12-19T22:19:57.243Z,19.23
2018-12-19T22:22:25.676Z,23.23
2018-12-19T22:24:54.287Z,19.60
2018-12-19T22:27:22.775Z,18.87
2018-12-19T22:29:51.595Z,21.90
2018-12-19T22:32:20.226Z,21.90
2018-12-19T22:34:48.883Z,24.80
2018-12-19T22:37:17.402Z,23.90
2018-12-19T22:39:45.823Z,21.47
2018-12-19T22:42:14.342Z,21.17
2018-12-19T22:44:42.956Z,19.13
2018-12-19T22:47:11.363Z,18.27
2018-12-19T22:49:39.785Z,24.27
2018-12-19T22:52:08.527Z,18.87
2018-12-19T22:54:37.191Z,19.83
2018-12-19T22:57:05.866Z,20.62
2018-12-19T22:59:34.489Z,21.17
2018-12-19T23:02:08.286Z,20.47
2018-12-19T23:04:37.043Z,23.83
2018-12-19T23:07:05.567Z,23.90
2018-12-19T23:09:34.265Z,21.90
2018-12-19T23:12:03.060Z,20.27
2018-12-19T23:14:31.769Z,19.93
2018-12-19T23:17:04.523Z,20.03
2018-12-19T23:19:33.005Z,20.60
2018-12-19T23:22:01.636Z,23.60
2018-12-19T23:24:30.296Z,22.70
2018-12-19T23:26:59.013Z,22.10
2018-12-19T23:29:27.789Z,20.37
2018-12-19T23:31:56.500Z,20.80
2018-12-19T23:34:24.948Z,17.90
2018-12-19T23:36:53.470Z,21.03
2018-12-19T23:39:21.872Z,15.50
2018-12-19T23:41:50.378Z,15.20
2018-12-19T23:44:24.239Z,18.80
2018-12-19T23:46:53.060Z,21.57
2018-12-19T23:49:21.849Z,20.20
2018-12-19T23:51:50.703Z,20.07
2018-12-19T23:54:19.557Z,22.80
2018-12-19T23:56:48.086Z,20.33
2018-12-19T23:59:16.803Z,22.07
